Latest Weather Observations for Gunnedah Airport

IDN60801

Issued at 4:35 pm EDT Sunday 26 October 2014 (issued every 30 minutes, with the page automatically refreshed every 10 minutes)

About weather observations | Map of weather stations | Latest weather observations for NSW | Other Formats
Station Details ID: 055202 Name: GUNNEDAH AIRPORT AWS Lat: -30.95 Lon: 150.25 Height: 262.57 m
Data from the previous 72 hours. | See also: Recent months at Gunnedah Airport
Date/Time
EDT
Temp
°C
App
Temp
°C
Dew
Point
Rel
Hum
%
Delta-T
°C
Wind Press
QNH
hPa
Press
MSL
hPa
Rain
since 9 am
mm
Dir
 
Spd
km/h
Gust
km/h
Spd
kts
Gust
kts
26/04:30pm 38.5 31.8 1.5 10 19.4 W 26 39 14 21 1007.5 1006.7 0.0
26/04:00pm 38.9 32.1 3.1 11 19.2 W 28 41 15 22 1007.7 1006.9 0.0
26/03:46pm 36.6 28.6 1.4 11 18.2 WSW 33 52 18 28 1007.9 1007.1 0.0
26/03:30pm 38.3 32.7 1.3 10 19.2 WSW 20 30 11 16 1008.1 1007.4 0.0
26/03:21pm 38.7 29.6 1.6 10 19.4 W 39 48 21 26 1008.1 1007.4 0.0
26/03:06pm 38.7 31.6 1.6 10 19.5 WSW 28 54 15 29 1008.1 1007.4 0.0
26/03:00pm 37.3 30.7 1.9 11 18.5 W 26 41 14 22 1008.4 1007.7 0.0
26/02:30pm 38.7 31.9 3.0 11 19.1 WNW 28 39 15 21 1008.9 1008.2 0.0
26/02:02pm 37.7 30.7 2.2 11 18.7 W 28 46 15 25 1009.4 1008.7 0.0
26/02:00pm 38.4 31.2 2.8 11 19.0 W 30 46 16 25 1009.4 1008.7 0.0
26/01:53pm 38.7 32.1 4.2 12 18.8 W 28 46 15 25 1009.5 1008.8 0.0
26/01:30pm 38.2 31.9 3.8 12 18.6 NW 26 33 14 18 1009.7 1009.0 0.0
26/01:00pm 37.7 31.2 4.6 13 18.1 W 28 39 15 21 1010.1 1009.4 0.0
26/12:30pm 37.5 31.7 4.4 13 18.0 W 24 33 13 18 1010.7 1009.9 0.0
26/12:00pm 36.3 30.7 3.5 13 17.5 NW 22 32 12 17 1011.3 1010.6 0.0
26/11:30am 36.0 31.9 4.3 14 17.1 NW 15 30 8 16 1011.8 1011.1 0.0
26/11:00am 33.5 29.2 5.1 17 15.3 WNW 17 28 9 15 1012.5 1011.8 0.0
26/10:30am 32.9 28.1 4.6 17 15.0 NNW 19 28 10 15 1012.8 1012.1 0.0
26/10:00am 31.2 28.7 4.9 19 13.9 WNW 7 17 4 9 1013.2 1012.5 0.0
26/09:30am 29.5 27.6 6.8 24 12.3 SSW 6 11 3 6 1013.4 1012.7 0.0
26/09:00am 28.8 26.9 6.8 25 11.9 ESE 6 9 3 5 1013.5 1012.8 0.0
26/08:30am 27.2 26.6 7.6 29 10.6 CALM 0 0 0 0 1013.5 1012.8 0.0
26/08:00am 24.8 24.6 9.1 37 8.6 CALM 0 0 0 0 1013.6 1012.9 0.0
26/07:30am 21.3 21.2 10.8 51 5.8 SSW 2 7 1 4 1013.4 1012.7 0.0
26/07:00am 18.3 17.0 9.9 58 4.5 SSW 7 9 4 5 1013.3 1012.6 0.0
26/06:30am 16.9 14.5 8.6 58 4.3 S 11 13 6 7 1013.1 1012.4 0.0
26/06:00am 17.9 17.5 8.2 53 5.0 CALM 0 6 0 3 1012.9 1012.2 0.0
26/05:30am 18.8 17.3 8.5 51 5.4 SSW 6 9 3 5 1013.0 1012.3 0.0
26/05:00am 18.0 16.4 8.8 55 4.8 SW 7 9 4 5 1013.1 1012.4 0.0
26/04:30am 19.4 18.1 9.3 52 5.4 S 6 9 3 5 1013.0 1012.3 0.0
26/04:00am 20.4 19.4 7.4 43 6.7 N 2 7 1 4 1013.0 1012.3 0.0
26/03:30am 21.7 19.7 7.2 39 7.6 E 7 11 4 6 1013.4 1012.7 0.0
26/03:00am 22.0 18.8 7.0 38 7.8 E 13 17 7 9 1013.5 1012.8 0.0
26/02:30am 24.0 20.5 7.2 34 8.9 E 15 20 8 11 1013.9 1013.2 0.0
26/02:00am 24.2 21.7 6.5 32 9.2 ESE 9 13 5 7 1015.3 1014.6 0.0
26/01:30am 25.6 21.8 5.8 28 10.3 SSE 15 19 8 10 1015.6 1014.9 0.0
26/01:00am 25.2 21.9 6.4 30 9.9 S 13 22 7 12 1016.1 1015.4 0.0
26/12:30am 23.8 20.2 6.6 33 9.0 SSE 15 17 8 9 1015.2 1014.5 0.0
26/12:00am 23.6 20.3 6.4 33 8.9 SE 13 17 7 9 1015.2 1014.5 0.0
 
Date/Time
EDT
Temp
°C
App
Temp
°C
Dew
Point
Rel
Hum
%
Delta-T
°C
Wind Press
QNH
hPa
Press
MSL
hPa
Rain
since 9 am
mm
Dir
 
Spd
km/h
Gust
km/h
Spd
kts
Gust
kts
25/11:30pm 23.6 20.2 6.0 32 9.1 ESE 13 19 7 10 1015.1 1014.4 0.0
25/11:00pm 24.4 21.3 5.7 30 9.6 E 11 17 6 9 1015.3 1014.6 0.0
25/10:30pm 25.7 21.5 5.8 28 10.4 E 17 20 9 11 1015.4 1014.7 0.0
25/10:00pm 27.8 22.6 5.4 24 11.7 ESE 22 35 12 19 1015.2 1014.5 0.0
25/09:30pm 26.9 23.2 4.6 24 11.4 ESE 13 19 7 10 1015.2 1014.5 0.0
25/09:00pm 26.1 21.5 6.7 29 10.3 SE 20 24 11 13 1014.8 1014.1 0.0
25/08:30pm 24.4 23.8 7.5 34 9.0 SW 0 0 0 0 1014.0 1013.3 0.0
25/08:00pm 26.6 25.5 5.0 25 11.1 CALM 0 4 0 2 1013.5 1012.8 0.0
25/07:30pm 29.6 26.7 2.8 18 13.6 N 7 11 4 6 1013.2 1012.5 0.0
25/07:00pm 30.9 28.1 3.0 17 14.3 N 7 9 4 5 1013.0 1012.3 0.0
25/06:30pm 32.9 29.5 1.9 14 15.8 N 9 13 5 7 1012.8 1012.1 0.0
25/06:00pm 34.2 30.8 1.9 13 16.6 NNE 9 11 5 6 1012.6 1011.9 0.0
25/05:30pm 35.1 31.3 1.5 12 17.2 N 11 15 6 8 1012.7 1012.0 0.0
25/05:00pm 35.6 32.2 1.8 12 17.4 S 9 15 5 8 1012.8 1012.1 0.0
25/04:30pm 35.2 32.1 1.5 12 17.3 S 7 15 4 8 1012.9 1012.2 0.0
25/04:00pm 36.0 30.9 0.9 11 17.9 S 17 24 9 13 1013.1 1012.4 0.0
25/03:30pm 35.9 32.5 2.1 12 17.6 WNW 9 15 5 8 1013.4 1012.7 0.0
25/03:00pm 36.5 31.7 2.5 12 17.8 S 17 30 9 16 1013.7 1013.0 0.0
25/02:30pm 36.0 30.7 2.1 12 17.6 SSE 19 24 10 13 1014.3 1013.5 0.0
25/02:00pm 35.3 30.0 1.6 12 17.3 E 19 24 10 13 1014.8 1014.1 0.0
25/01:30pm 35.0 31.5 3.5 14 16.6 SE 11 32 6 17 1015.3 1014.6 0.0
25/01:00pm 33.5 30.0 1.3 13 16.3 WSW 9 19 5 10 1015.8 1015.1 0.0
25/12:30pm 33.6 29.7 3.4 15 15.8 ENE 13 19 7 10 1016.3 1015.6 0.0
25/12:00pm 33.3 30.7 4.1 16 15.4 NNE 7 17 4 9 1016.7 1016.0 0.0
25/11:30am 31.9 28.8 1.1 14 15.4 WSW 7 15 4 8 1017.0 1016.3 0.0
25/11:00am 31.8 28.4 3.8 17 14.6 N 11 19 6 10 1017.4 1016.7 0.0
25/10:30am 30.3 27.3 4.1 19 13.6 NW 9 17 5 9 1017.7 1017.0 0.0
25/10:00am 29.7 25.9 7.6 25 12.1 NW 17 24 9 13 1017.9 1017.3 0.0
25/09:30am 28.9 25.7 8.6 28 11.3 WNW 15 20 8 11 1018.0 1017.4 0.0
25/09:00am 27.8 23.8 8.1 29 10.8 W 19 24 10 13 1018.0 1017.4 0.0
25/08:30am 26.7 22.6 8.6 32 9.9 W 20 24 11 13 1017.7 1017.0 0.0
25/08:00am 25.8 21.9 8.8 34 9.3 W 19 24 10 13 1017.5 1016.8 0.0
25/07:30am 23.5 20.9 10.6 44 7.2 W 15 19 8 10 1017.2 1016.5 0.0
25/07:00am 18.9 17.0 10.5 58 4.6 WNW 11 15 6 8 1016.9 1016.2 0.0
25/06:30am 14.1 12.3 9.3 73 2.5 W 9 9 5 5 1016.5 1015.8 0.0
25/06:00am 13.8 12.3 8.4 70 2.7 NW 6 9 3 5 1016.2 1015.5 0.0
25/05:30am 16.1 14.8 10.0 67 3.2 N 7 9 4 5 1015.9 1015.2 0.0
25/05:00am 14.8 12.9 9.2 69 2.9 NNE 9 11 5 6 1015.6 1014.9 0.0
25/04:30am 15.9 14.2 8.2 60 3.9 N 7 11 4 6 1015.4 1014.7 0.0
25/04:28am 16.2 14.5 8.2 59 4.1 N 7 11 4 6 1015.4 1014.7 0.0
25/04:00am 21.4 18.1 8.0 42 7.1 W 15 19 8 10 1015.1 1014.4 0.0
25/03:30am 22.1 18.8 8.2 41 7.4 W 15 20 8 11 1014.9 1014.2 0.0
25/03:00am 21.3 19.0 8.9 45 6.6 WSW 11 13 6 7 1014.9 1014.2 0.0
25/02:30am 18.0 15.4 9.4 57 4.6 WSW 13 15 7 8 1014.9 1014.2 0.0
25/02:00am 17.2 17.1 9.4 60 4.1 CALM 0 0 0 0 1014.9 1014.2 0.0
25/01:30am 17.4 17.3 9.3 59 4.3 CALM 0 0 0 0 1015.1 1014.4 0.0
25/01:00am 17.0 15.1 9.2 60 4.1 NNE 9 15 5 8 1015.4 1014.7 0.0
25/12:30am 22.1 20.5 8.6 42 7.2 WNW 7 11 4 6 1015.5 1014.8 0.0
25/12:00am 19.3 18.0 9.2 52 5.4 NNW 6 9 3 5 1015.8 1015.1 0.0
 
Date/Time
EDT
Temp
°C
App
Temp
°C
Dew
Point
Rel
Hum
%
Delta-T
°C
Wind Press
QNH
hPa
Press
MSL
hPa
Rain
since 9 am
mm
Dir
 
Spd
km/h
Gust
km/h
Spd
kts
Gust
kts
24/11:30pm 18.9 16.5 9.9 56 4.9 WSW 13 15 7 8 1016.0 1015.3 0.0
24/11:00pm 20.6 19.5 9.8 50 5.9 WSW 6 7 3 4 1015.4 1014.7 0.0
24/10:30pm 20.7 19.4 9.9 50 5.9 W 7 7 4 4 1015.3 1014.6 0.0
24/10:00pm 22.4 20.6 7.8 39 7.7 WNW 7 9 4 5 1015.1 1014.4 0.0
24/09:30pm 22.3 21.0 7.7 39 7.7 NW 4 13 2 7 1014.8 1014.1 0.0
24/09:00pm 23.2 22.0 8.1 38 8.1 N 4 7 2 4 1014.5 1013.7 0.0
24/08:30pm 24.0 21.3 7.2 34 8.9 N 11 11 6 6 1014.4 1013.6 0.0
24/08:00pm 25.5 22.6 6.7 30 9.9 N 11 13 6 7 1014.3 1013.5 0.0
24/07:30pm 28.5 25.1 6.0 24 11.9 N 13 19 7 10 1014.1 1013.4 0.0
24/07:00pm 30.3 27.0 6.2 22 13.0 N 13 17 7 9 1014.0 1013.3 0.0
24/06:30pm 32.0 27.2 5.5 19 14.2 N 20 28 11 15 1013.9 1013.2 0.0
24/06:00pm 32.8 28.1 6.2 19 14.5 NNW 20 33 11 18 1013.9 1013.2 0.0
24/05:30pm 33.3 28.9 6.6 19 14.7 NNW 19 26 10 14 1014.0 1013.3 0.0
24/05:00pm 33.6 29.6 6.8 19 14.8 NNW 17 24 9 13 1014.3 1013.5 0.0
24/04:30pm 33.6 29.6 6.8 19 14.8 NNW 17 30 9 16 1014.5 1013.7 0.0
24/04:00pm 33.6 29.3 6.8 19 14.8 NNW 19 33 10 18 1014.8 1014.1 0.0
24/03:30pm 33.0 29.7 6.3 19 14.6 NW 13 19 7 10 1015.4 1014.7 0.0
24/03:00pm 33.3 28.7 6.6 19 14.7 NW 20 26 11 14 1016.1 1015.4 0.0
24/02:30pm 32.8 30.5 7.6 21 14.0 N 9 13 5 7 1016.6 1015.9 0.0
24/02:00pm 31.7 28.6 7.4 22 13.4 NW 13 22 7 12 1017.3 1016.6 0.0
24/01:30pm 30.7 27.6 7.2 23 12.9 NE 13 20 7 11 1018.0 1017.4 0.0
24/01:00pm 30.6 28.5 8.3 25 12.4 ENE 9 15 5 8 1018.7 1018.0 0.0
24/12:30pm 29.1 27.4 7.6 26 11.8 ENE 6 11 3 6 1019.2 1018.5 0.0
24/12:00pm 27.7 26.3 9.0 31 10.4 ESE 6 13 3 7 1019.7 1019.0 0.0
24/11:30am 25.9 24.4 9.3 35 9.2 ENE 7 13 4 7 1020.3 1019.6 0.0
24/11:00am 24.1 23.2 10.7 43 7.5 SE 6 11 3 6 1020.7 1020.0 0.0
24/10:30am 23.1 21.9 11.5 48 6.6 NNE 9 13 5 7 1020.9 1020.2 0.0
24/10:00am 22.6 21.2 11.0 48 6.5 E 9 15 5 8 1021.2 1020.6 0.0
24/09:30am 20.8 19.5 11.4 55 5.3 SE 9 11 5 6 1021.6 1021.0 0.0
24/09:00am 20.2 18.8 10.9 55 5.1 ESE 9 11 5 6 1021.2 1020.6 1.0
24/08:30am 19.6 17.8 10.9 57 4.8 SE 11 13 6 7 1021.4 1020.8 1.0
24/08:00am 19.3 17.2 11.1 59 4.5 SE 13 17 7 9 1021.3 1020.7 1.0
24/07:30am 16.7 15.3 11.0 69 3.1 SE 9 13 5 7 1020.9 1020.2 1.0
24/07:00am 16.0 14.6 11.0 72 2.7 E 9 13 5 7 1020.6 1019.9 1.0
24/06:30am 15.7 13.0 10.2 70 2.9 E 15 19 8 10 1020.4 1019.7 1.0
24/06:00am 15.6 14.1 10.6 72 2.7 E 9 11 5 6 1019.9 1019.2 1.0
24/05:30am 17.6 16.6 10.2 62 4.0 S 6 9 3 5 1019.8 1019.1 1.0
24/05:00am 17.7 14.7 10.8 64 3.7 SE 17 20 9 11 1018.9 1018.2 1.0
24/04:30am 14.3 12.6 11.1 81 1.7 SSE 11 13 6 7 1018.6 1017.9 1.0
24/04:00am 14.5 12.2 10.3 76 2.2 S 13 13 7 7 1018.3 1017.6 1.0
24/03:30am 15.7 14.3 10.9 73 2.6 S 9 11 5 6 1018.0 1017.4 1.0
24/03:00am 14.7 12.4 10.5 76 2.2 S 13 13 7 7 1018.3 1017.6 1.0
24/02:30am 14.7 12.3 9.9 73 2.5 S 13 15 7 8 1018.5 1017.8 1.0
24/02:00am 16.5 15.1 11.0 70 3.0 SSE 9 11 5 6 1018.7 1018.0 1.0
24/01:30am 17.9 16.5 11.0 64 3.8 SSE 9 11 5 6 1019.1 1018.4 1.0
24/01:00am 17.1 15.0 9.8 62 3.9 S 11 13 6 7 1019.4 1018.7 1.0
24/12:30am 18.5 16.4 9.8 57 4.7 SE 11 15 6 8 1019.6 1018.9 1.0
24/12:00am 19.1 18.2 9.3 53 5.2 E 4 11 2 6 1019.6 1018.9 1.0
 
Date/Time
EDT
Temp
°C
App
Temp
°C
Dew
Point
Rel
Hum
%
Delta-T
°C
Wind Press
QNH
hPa
Press
MSL
hPa
Rain
since 9 am
mm
Dir
 
Spd
km/h
Gust
km/h
Spd
kts
Gust
kts
23/11:30pm 20.6 17.3 9.5 49 6.0 E 17 20 9 11 1019.7 1019.0 1.0
23/11:00pm 21.3 17.1 9.9 48 6.2 E 22 28 12 15 1019.6 1018.9 1.0
23/10:30pm 21.8 18.7 10.3 48 6.3 ESE 17 22 9 12 1019.5 1018.8 1.0
23/10:00pm 21.7 18.7 10.8 50 6.1 ESE 17 19 9 10 1019.3 1018.6 1.0
23/09:30pm 21.1 18.8 13.0 60 4.7 E 17 26 9 14 1018.7 1018.0 1.0
23/09:00pm 22.3 20.3 12.8 55 5.5 W 15 19 8 10 1018.0 1017.4 1.0
23/08:30pm 20.7 19.3 13.4 63 4.2 SW 13 20 7 11 1017.8 1017.2 1.0
23/08:00pm 20.4 19.3 11.9 58 4.8 SE 9 15 5 8 1017.1 1016.4 1.0
23/07:30pm 22.9 21.3 10.3 45 7.0 NNE 9 13 5 7 1016.4 1015.7 1.0
23/07:00pm 23.8 22.7 10.8 44 7.3 N 7 9 4 5 1016.3 1015.6 1.0
23/06:30pm 24.9 24.0 11.5 43 7.7 NW 7 11 4 6 1016.2 1015.5 1.0
23/06:00pm 24.8 23.6 14.0 51 6.4 NNE 13 15 7 8 1016.1 1015.4 1.0
23/05:30pm 26.3 24.1 12.0 41 8.3 NE 15 20 8 11 1016.0 1015.3 1.0
23/05:00pm 23.5 24.3 16.3 64 4.4 NNE 7 11 4 6 1016.5 1015.8 1.0

Other Formats:

Comma delimited format used in spreadsheet applications
http://www.bom.gov.au/fwo/IDN60801/IDN60801.95740.axf

JavaScript Object Notation format (JSON) in row-major order
http://www.bom.gov.au/fwo/IDN60801/IDN60801.95740.json